EDT,Max TemperatureF,Mean TemperatureF,Min TemperatureF,Max Dew PointF,MeanDew PointF,Min DewpointF,Max Humidity, Mean Humidity, Min Humidity, Max Sea Level PressureIn, Mean Sea Level PressureIn, Min Sea Level PressureIn, Max VisibilityMiles, Mean VisibilityMiles, Min VisibilityMiles, Max Wind SpeedMPH, Mean Wind SpeedMPH, Max Gust SpeedMPH,PrecipitationIn, CloudCover, Events, WindDirDegrees
2012-10-1,67,58,50,50,48,46,84,68,41,29.88,29.86,29.83,,,,8,5,,0.00,,,271
2012-10-2,63,56,50,59,54,48,92,85,71,29.92,29.87,29.84,,,,8,3,,0.00,,,106
2012-10-3,67,62,56,60,58,55,95,91,79,30.08,29.98,29.90,,,,7,3,,0.00,,,2
2012-10-4,73,64,55,57,55,50,87,69,43,30.10,30.04,29.97,,,,20,8,30,0.00,,,222
2012-10-5,70,62,53,58,53,45,82,68,41,29.97,29.93,29.89,,,,13,9,20,0.31,,,250
2012-10-6,55,50,45,46,39,31,91,68,35,30.03,29.91,29.83,,,,17,8,25,0.16,,,270
2012-10-7,50,47,44,41,39,37,82,73,63,30.06,30.03,30.01,,,,7,5,,0.02,,,329
2012-10-8,55,46,37,41,37,33,89,72,38,30.20,30.16,30.11,,,,12,4,,0.00,,,227
2012-10-9,58,49,40,40,39,35,81,65,39,30.18,30.08,29.93,,,,13,5,18,0.00,,,194
2012-10-10,55,49,43,46,38,30,84,64,40,30.00,29.84,29.72,,,,16,9,25,0.08,,,252
2012-10-11,55,45,35,41,32,28,73,57,40,30.16,30.06,29.95,,,,25,12,34,0.00,,,250
2012-10-12,48,42,33,41,30,23,80,61,33,30.43,30.30,30.06,,,,14,8,20,0.00,,,334
2012-10-13,52,42,31,41,30,25,78,60,37,30.43,30.32,30.10,,,,8,5,,0.01,,,178
2012-10-14,75,67,59,59,57,55,88,73,51,29.85,29.73,29.50,,,,20,15,28,0.03,,,223
2012-10-15,66,56,47,57,45,38,80,66,49,29.81,29.60,29.42,,,,26,18,43,0.00,,,263
2012-10-16,52,47,42,39,37,34,80,68,46,29.94,29.87,29.82,,,,12,7,17,0.00,,,285
2012-10-17,68,54,40,48,45,38,90,64,41,29.86,29.77,29.71,,,,12,5,,0.03,,,181
2012-10-18,70,60,50,49,45,40,89,62,34,29.79,29.67,29.59,,,,18,6,26,0.16,,,175
2012-10-19,53,46,38,49,45,38,97,92,85,29.79,29.70,29.61,,,,8,4,,0.18,,,34
2012-10-20,54,50,45,49,45,43,95,83,65,29.75,29.64,29.58,,,,16,7,23,0.08,,,233
2012-10-21,61,52,44,47,43,41,89,74,48,30.07,29.96,29.79,,,,13,8,20,0.00,,,259
2012-10-22,66,54,43,50,45,40,84,71,43,30.11,30.06,30.01,,,,8,6,,0.00,,,233
2012-10-23,52,50,49,51,50,48,97,94,81,30.07,30.01,29.99,,,,10,4,17,0.51,,,70
2012-10-24,52,50,48,49,48,47,97,95,88,30.09,30.07,30.05,,,,9,6,,0.01,,,18
2012-10-25,65,52,47,54,50,47,98,93,62,30.06,30.00,29.89,,,,8,4,,0.00,,,306
2012-10-26,69,58,47,55,50,43,92,76,58,30.18,30.04,29.91,,,,14,9,24,0.00,,,281
2012-10-27,46,46,44,45,43,40,97,89,75,30.17,30.09,30.02,,,,17,9,,0.75,,,12
2012-10-28,43,42,42,40,39,38,92,86,76,30.11,30.05,29.95,,,,20,16,25,0.20,,,31
2012-10-29,43,42,40,40,39,38,95,90,86,29.94,29.74,29.34,,,,30,19,43,0.51,,,12
2012-10-30,54,47,40,50,46,41,94,89,67,29.37,29.23,29.11,,,,31,19,43,0.31,,,72
2012-10-31,47,44,42,44,42,40,95,88,77,29.44,29.40,29.36,,,,9,3,,0.02,,,229